sensor_id;sensor_type;location;lat;lon;timestamp;pressure;altitude;pressure_sealevel;temperature;humidity
78411;BME280;67706;51.074;-1.796;2023-11-18T00:01:41;101306.59;;;9.35;100.00
78411;BME280;67706;51.074;-1.796;2023-11-18T00:04:09;101313.13;;;9.34;100.00
78411;BME280;67706;51.074;-1.796;2023-11-18T00:06:41;101309.16;;;9.36;100.00
78411;BME280;67706;51.074;-1.796;2023-11-18T00:09:09;101307.75;;;9.48;100.00
78411;BME280;67706;51.074;-1.796;2023-11-18T00:11:38;101282.41;;;9.46;100.00
78411;BME280;67706;51.074;-1.796;2023-11-18T00:14:05;101277.97;;;9.45;100.00
78411;BME280;67706;51.074;-1.796;2023-11-18T00:16:33;101271.41;;;9.54;100.00
78411;BME280;67706;51.074;-1.796;2023-11-18T00:19:00;101245.38;;;9.58;100.00
78411;BME280;67706;51.074;-1.796;2023-11-18T00:21:30;101250.72;;;9.52;100.00
78411;BME280;67706;51.074;-1.796;2023-11-18T00:23:56;101248.63;;;9.54;100.00
78411;BME280;67706;51.074;-1.796;2023-11-18T00:26:23;101256.59;;;9.63;100.00
78411;BME280;67706;51.074;-1.796;2023-11-18T00:28:51;101264.66;;;9.65;100.00
78411;BME280;67706;51.074;-1.796;2023-11-18T00:31:18;101262.22;;;9.70;100.00
78411;BME280;67706;51.074;-1.796;2023-11-18T00:33:46;101252.06;;;9.79;100.00
78411;BME280;67706;51.074;-1.796;2023-11-18T00:36:12;101236.66;;;9.78;100.00
78411;BME280;67706;51.074;-1.796;2023-11-18T00:38:39;101231.19;;;9.78;100.00
78411;BME280;67706;51.074;-1.796;2023-11-18T00:41:06;101230.69;;;9.74;100.00
78411;BME280;67706;51.074;-1.796;2023-11-18T00:43:33;101233.06;;;9.77;100.00
78411;BME280;67706;51.074;-1.796;2023-11-18T00:45:59;101235.31;;;9.74;100.00
78411;BME280;67706;51.074;-1.796;2023-11-18T00:48:28;101231.66;;;9.81;100.00
78411;BME280;67706;51.074;-1.796;2023-11-18T00:50:57;101225.50;;;9.79;100.00
78411;BME280;67706;51.074;-1.796;2023-11-18T00:53:23;101220.38;;;9.76;100.00
78411;BME280;67706;51.074;-1.796;2023-11-18T00:55:50;101214.00;;;9.84;100.00
78411;BME280;67706;51.074;-1.796;2023-11-18T00:58:17;101205.47;;;9.79;100.00
78411;BME280;67706;51.074;-1.796;2023-11-18T01:00:44;101195.50;;;9.86;100.00
78411;BME280;67706;51.074;-1.796;2023-11-18T01:03:11;101195.97;;;9.89;100.00
78411;BME280;67706;51.074;-1.796;2023-11-18T01:05:37;101198.72;;;9.89;100.00
78411;BME280;67706;51.074;-1.796;2023-11-18T01:08:05;101188.28;;;9.85;100.00
78411;BME280;67706;51.074;-1.796;2023-11-18T01:10:32;101190.00;;;9.86;100.00
78411;BME280;67706;51.074;-1.796;2023-11-18T01:12:59;101164.81;;;9.90;100.00
78411;BME280;67706;51.074;-1.796;2023-11-18T01:15:26;101160.16;;;9.91;100.00
78411;BME280;67706;51.074;-1.796;2023-11-18T01:17:52;101144.97;;;9.88;100.00
78411;BME280;67706;51.074;-1.796;2023-11-18T01:20:19;101147.50;;;9.90;100.00
78411;BME280;67706;51.074;-1.796;2023-11-18T01:22:47;101154.66;;;9.91;100.00
78411;BME280;67706;51.074;-1.796;2023-11-18T01:25:16;101153.34;;;9.87;100.00
78411;BME280;67706;51.074;-1.796;2023-11-18T01:27:44;101141.91;;;9.83;100.00
78411;BME280;67706;51.074;-1.796;2023-11-18T01:30:13;101142.38;;;9.87;100.00
78411;BME280;67706;51.074;-1.796;2023-11-18T01:32:39;101140.31;;;9.89;100.00
78411;BME280;67706;51.074;-1.796;2023-11-18T01:35:07;101132.28;;;9.87;100.00
78411;BME280;67706;51.074;-1.796;2023-11-18T01:37:36;101138.22;;;9.91;100.00
78411;BME280;67706;51.074;-1.796;2023-11-18T01:40:03;101139.66;;;10.01;100.00
78411;BME280;67706;51.074;-1.796;2023-11-18T01:42:33;101131.91;;;9.90;100.00
78411;BME280;67706;51.074;-1.796;2023-11-18T01:45:00;101136.84;;;9.95;100.00
78411;BME280;67706;51.074;-1.796;2023-11-18T01:47:29;101139.09;;;10.06;100.00
78411;BME280;67706;51.074;-1.796;2023-11-18T01:49:58;101134.38;;;10.00;100.00
78411;BME280;67706;51.074;-1.796;2023-11-18T01:52:26;101129.94;;;9.99;100.00
78411;BME280;67706;51.074;-1.796;2023-11-18T01:54:55;101125.91;;;10.09;100.00
78411;BME280;67706;51.074;-1.796;2023-11-18T01:57:22;101126.19;;;10.14;100.00
78411;BME280;67706;51.074;-1.796;2023-11-18T01:59:51;101114.78;;;10.25;100.00
78411;BME280;67706;51.074;-1.796;2023-11-18T02:02:18;101112.78;;;10.19;100.00
78411;BME280;67706;51.074;-1.796;2023-11-18T02:04:46;101105.88;;;10.23;100.00
78411;BME280;67706;51.074;-1.796;2023-11-18T02:07:13;101100.78;;;10.20;100.00
78411;BME280;67706;51.074;-1.796;2023-11-18T02:09:41;101110.31;;;10.24;100.00
78411;BME280;67706;51.074;-1.796;2023-11-18T02:12:15;101094.72;;;10.25;100.00
78411;BME280;67706;51.074;-1.796;2023-11-18T02:14:48;101080.00;;;10.26;100.00
78411;BME280;67706;51.074;-1.796;2023-11-18T02:17:18;101077.41;;;10.24;100.00
78411;BME280;67706;51.074;-1.796;2023-11-18T02:19:50;101069.84;;;10.26;100.00
78411;BME280;67706;51.074;-1.796;2023-11-18T02:22:17;101067.97;;;10.27;100.00
78411;BME280;67706;51.074;-1.796;2023-11-18T02:24:45;101069.69;;;10.28;100.00
78411;BME280;67706;51.074;-1.796;2023-11-18T02:27:13;101082.34;;;10.29;100.00
78411;BME280;67706;51.074;-1.796;2023-11-18T02:29:41;101075.94;;;10.22;100.00
78411;BME280;67706;51.074;-1.796;2023-11-18T02:32:13;101065.53;;;10.32;100.00
78411;BME280;67706;51.074;-1.796;2023-11-18T02:34:48;101066.84;;;10.36;100.00
78411;BME280;67706;51.074;-1.796;2023-11-18T02:37:19;101052.91;;;10.37;100.00
78411;BME280;67706;51.074;-1.796;2023-11-18T02:39:52;101047.91;;;10.41;100.00
78411;BME280;67706;51.074;-1.796;2023-11-18T02:42:21;101034.47;;;10.46;100.00
78411;BME280;67706;51.074;-1.796;2023-11-18T02:44:50;101041.19;;;10.44;100.00
78411;BME280;67706;51.074;-1.796;2023-11-18T02:47:24;101031.28;;;10.43;100.00
78411;BME280;67706;51.074;-1.796;2023-11-18T02:49:54;101031.53;;;10.48;100.00
78411;BME280;67706;51.074;-1.796;2023-11-18T02:52:21;101027.66;;;10.42;100.00
78411;BME280;67706;51.074;-1.796;2023-11-18T02:54:48;101027.31;;;10.45;100.00
78411;BME280;67706;51.074;-1.796;2023-11-18T02:57:14;101012.44;;;10.39;100.00
78411;BME280;67706;51.074;-1.796;2023-11-18T02:59:42;101000.31;;;10.49;100.00
78411;BME280;67706;51.074;-1.796;2023-11-18T03:02:12;101001.63;;;10.53;100.00
78411;BME280;67706;51.074;-1.796;2023-11-18T03:04:40;101001.94;;;10.43;100.00
78411;BME280;67706;51.074;-1.796;2023-11-18T03:07:09;100973.75;;;10.49;100.00
78411;BME280;67706;51.074;-1.796;2023-11-18T03:09:36;100980.28;;;10.48;100.00
78411;BME280;67706;51.074;-1.796;2023-11-18T03:12:05;100977.81;;;10.53;100.00
78411;BME280;67706;51.074;-1.796;2023-11-18T03:14:33;100967.09;;;10.58;100.00
78411;BME280;67706;51.074;-1.796;2023-11-18T03:17:01;100958.41;;;10.55;100.00
78411;BME280;67706;51.074;-1.796;2023-11-18T03:19:32;100954.56;;;10.49;100.00
78411;BME280;67706;51.074;-1.796;2023-11-18T03:22:00;100942.16;;;10.53;100.00
78411;BME280;67706;51.074;-1.796;2023-11-18T03:24:26;100939.00;;;10.56;100.00
78411;BME280;67706;51.074;-1.796;2023-11-18T03:26:54;100931.19;;;10.53;100.00
78411;BME280;67706;51.074;-1.796;2023-11-18T03:29:20;100918.78;;;10.57;100.00
78411;BME280;67706;51.074;-1.796;2023-11-18T03:31:48;100927.38;;;10.54;100.00
78411;BME280;67706;51.074;-1.796;2023-11-18T03:34:16;100916.03;;;10.57;100.00
78411;BME280;67706;51.074;-1.796;2023-11-18T03:36:45;100920.28;;;10.60;100.00
78411;BME280;67706;51.074;-1.796;2023-11-18T03:39:12;100910.13;;;10.60;100.00
78411;BME280;67706;51.074;-1.796;2023-11-18T03:41:39;100899.56;;;10.57;100.00
78411;BME280;67706;51.074;-1.796;2023-11-18T03:44:05;100894.97;;;10.64;100.00
78411;BME280;67706;51.074;-1.796;2023-11-18T03:46:33;100886.28;;;10.61;100.00
78411;BME280;67706;51.074;-1.796;2023-11-18T03:49:00;100868.19;;;10.66;100.00
78411;BME280;67706;51.074;-1.796;2023-11-18T03:51:28;100867.94;;;10.61;100.00
78411;BME280;67706;51.074;-1.796;2023-11-18T03:53:55;100867.09;;;10.61;100.00
78411;BME280;67706;51.074;-1.796;2023-11-18T03:56:22;100858.72;;;10.69;100.00
78411;BME280;67706;51.074;-1.796;2023-11-18T03:58:48;100840.38;;;10.69;100.00
78411;BME280;67706;51.074;-1.796;2023-11-18T04:01:19;100842.25;;;10.69;100.00
78411;BME280;67706;51.074;-1.796;2023-11-18T04:03:46;100836.34;;;10.65;100.00
78411;BME280;67706;51.074;-1.796;2023-11-18T04:06:13;100830.91;;;10.72;100.00
78411;BME280;67706;51.074;-1.796;2023-11-18T04:08:44;100821.16;;;10.69;100.00
78411;BME280;67706;51.074;-1.796;2023-11-18T04:11:11;100812.34;;;10.74;100.00
78411;BME280;67706;51.074;-1.796;2023-11-18T04:13:38;100808.16;;;10.78;100.00
78411;BME280;67706;51.074;-1.796;2023-11-18T04:16:06;100817.47;;;10.83;100.00
78411;BME280;67706;51.074;-1.796;2023-11-18T04:18:33;100818.31;;;10.84;100.00
78411;BME280;67706;51.074;-1.796;2023-11-18T04:20:59;100805.25;;;10.86;100.00
78411;BME280;67706;51.074;-1.796;2023-11-18T04:23:26;100803.16;;;10.88;100.00
78411;BME280;67706;51.074;-1.796;2023-11-18T04:25:54;100790.50;;;10.93;100.00
78411;BME280;67706;51.074;-1.796;2023-11-18T04:28:21;100772.38;;;10.92;100.00
78411;BME280;67706;51.074;-1.796;2023-11-18T04:30:47;100777.47;;;10.95;100.00
78411;BME280;67706;51.074;-1.796;2023-11-18T04:33:14;100789.22;;;10.89;100.00
78411;BME280;67706;51.074;-1.796;2023-11-18T04:35:40;100786.97;;;10.99;100.00
78411;BME280;67706;51.074;-1.796;2023-11-18T04:38:07;100779.56;;;11.00;100.00
78411;BME280;67706;51.074;-1.796;2023-11-18T04:40:34;100768.81;;;10.98;100.00
78411;BME280;67706;51.074;-1.796;2023-11-18T04:43:05;100759.16;;;11.09;100.00
78411;BME280;67706;51.074;-1.796;2023-11-18T04:45:32;100747.53;;;11.07;100.00
78411;BME280;67706;51.074;-1.796;2023-11-18T04:47:59;100744.53;;;11.02;100.00
78411;BME280;67706;51.074;-1.796;2023-11-18T04:50:26;100737.84;;;11.11;100.00
78411;BME280;67706;51.074;-1.796;2023-11-18T04:52:53;100729.38;;;11.12;100.00
78411;BME280;67706;51.074;-1.796;2023-11-18T04:55:20;100724.78;;;11.19;100.00
78411;BME280;67706;51.074;-1.796;2023-11-18T04:57:47;100725.19;;;11.16;100.00
78411;BME280;67706;51.074;-1.796;2023-11-18T05:00:15;100725.81;;;11.18;100.00
78411;BME280;67706;51.074;-1.796;2023-11-18T05:02:45;100709.13;;;11.13;100.00
78411;BME280;67706;51.074;-1.796;2023-11-18T05:05:13;100717.59;;;11.18;100.00
78411;BME280;67706;51.074;-1.796;2023-11-18T05:07:41;100727.91;;;11.16;100.00
78411;BME280;67706;51.074;-1.796;2023-11-18T05:10:08;100718.91;;;11.23;100.00
78411;BME280;67706;51.074;-1.796;2023-11-18T05:12:36;100710.88;;;11.28;100.00
78411;BME280;67706;51.074;-1.796;2023-11-18T05:15:03;100714.50;;;11.35;100.00
78411;BME280;67706;51.074;-1.796;2023-11-18T05:17:34;100695.69;;;11.38;100.00
78411;BME280;67706;51.074;-1.796;2023-11-18T05:20:01;100699.50;;;11.37;100.00
78411;BME280;67706;51.074;-1.796;2023-11-18T05:22:28;100692.97;;;11.45;100.00
78411;BME280;67706;51.074;-1.796;2023-11-18T05:24:57;100680.91;;;11.46;100.00
78411;BME280;67706;51.074;-1.796;2023-11-18T05:27:24;100679.88;;;11.47;100.00
78411;BME280;67706;51.074;-1.796;2023-11-18T05:29:51;100660.88;;;11.45;100.00
78411;BME280;67706;51.074;-1.796;2023-11-18T05:32:20;100659.41;;;11.49;100.00
78411;BME280;67706;51.074;-1.796;2023-11-18T05:34:49;100653.28;;;11.60;100.00
78411;BME280;67706;51.074;-1.796;2023-11-18T05:37:19;100655.59;;;11.57;100.00
78411;BME280;67706;51.074;-1.796;2023-11-18T05:39:45;100663.63;;;11.58;100.00
78411;BME280;67706;51.074;-1.796;2023-11-18T05:42:14;100669.34;;;11.63;100.00
78411;BME280;67706;51.074;-1.796;2023-11-18T05:44:41;100670.81;;;11.59;100.00
78411;BME280;67706;51.074;-1.796;2023-11-18T05:47:08;100666.19;;;11.60;100.00
78411;BME280;67706;51.074;-1.796;2023-11-18T05:49:37;100663.44;;;11.60;100.00
78411;BME280;67706;51.074;-1.796;2023-11-18T05:52:05;100658.00;;;11.73;100.00
78411;BME280;67706;51.074;-1.796;2023-11-18T05:54:33;100648.69;;;11.74;100.00
78411;BME280;67706;51.074;-1.796;2023-11-18T05:56:59;100635.81;;;11.81;100.00
78411;BME280;67706;51.074;-1.796;2023-11-18T05:59:26;100628.38;;;12.01;100.00
78411;BME280;67706;51.074;-1.796;2023-11-18T06:01:53;100634.50;;;12.03;100.00
78411;BME280;67706;51.074;-1.796;2023-11-18T06:04:22;100627.53;;;12.14;100.00
78411;BME280;67706;51.074;-1.796;2023-11-18T06:06:49;100612.50;;;12.16;100.00
78411;BME280;67706;51.074;-1.796;2023-11-18T06:09:17;100607.84;;;12.23;100.00
78411;BME280;67706;51.074;-1.796;2023-11-18T06:11:46;100601.28;;;12.24;100.00
78411;BME280;67706;51.074;-1.796;2023-11-18T06:14:14;100600.66;;;12.29;100.00
78411;BME280;67706;51.074;-1.796;2023-11-18T06:16:42;100602.53;;;12.35;100.00
78411;BME280;67706;51.074;-1.796;2023-11-18T06:19:08;100596.00;;;12.29;100.00
78411;BME280;67706;51.074;-1.796;2023-11-18T06:21:35;100603.16;;;12.37;100.00
78411;BME280;67706;51.074;-1.796;2023-11-18T06:24:03;100598.50;;;12.44;100.00
78411;BME280;67706;51.074;-1.796;2023-11-18T06:26:32;100593.00;;;12.44;100.00
78411;BME280;67706;51.074;-1.796;2023-11-18T06:29:01;100595.75;;;12.37;100.00
78411;BME280;67706;51.074;-1.796;2023-11-18T06:31:29;100595.50;;;12.52;100.00
78411;BME280;67706;51.074;-1.796;2023-11-18T06:33:56;100592.75;;;12.52;100.00
78411;BME280;67706;51.074;-1.796;2023-11-18T06:36:23;100595.50;;;12.58;100.00
78411;BME280;67706;51.074;-1.796;2023-11-18T06:38:52;100584.28;;;12.53;100.00
78411;BME280;67706;51.074;-1.796;2023-11-18T06:41:20;100575.59;;;12.56;100.00
78411;BME280;67706;51.074;-1.796;2023-11-18T06:43:49;100567.97;;;12.58;100.00
78411;BME280;67706;51.074;-1.796;2023-11-18T06:46:26;100565.22;;;12.58;100.00
78411;BME280;67706;51.074;-1.796;2023-11-18T06:48:57;100560.34;;;12.60;100.00
78411;BME280;67706;51.074;-1.796;2023-11-18T06:51:25;100572.16;;;12.67;100.00
78411;BME280;67706;51.074;-1.796;2023-11-18T06:53:52;100567.06;;;12.71;100.00
78411;BME280;67706;51.074;-1.796;2023-11-18T06:56:20;100556.88;;;12.71;100.00
78411;BME280;67706;51.074;-1.796;2023-11-18T06:58:47;100553.09;;;12.72;100.00
78411;BME280;67706;51.074;-1.796;2023-11-18T07:01:15;100552.66;;;12.75;100.00
78411;BME280;67706;51.074;-1.796;2023-11-18T07:03:42;100542.06;;;12.79;100.00
78411;BME280;67706;51.074;-1.796;2023-11-18T07:06:09;100542.03;;;12.86;100.00
78411;BME280;67706;51.074;-1.796;2023-11-18T07:08:39;100538.03;;;12.82;100.00
78411;BME280;67706;51.074;-1.796;2023-11-18T07:11:06;100533.53;;;12.87;100.00
78411;BME280;67706;51.074;-1.796;2023-11-18T07:13:33;100532.66;;;12.93;100.00
78411;BME280;67706;51.074;-1.796;2023-11-18T07:16:00;100524.34;;;13.00;100.00
78411;BME280;67706;51.074;-1.796;2023-11-18T07:18:29;100520.09;;;13.04;100.00
78411;BME280;67706;51.074;-1.796;2023-11-18T07:20:58;100522.84;;;13.04;100.00
78411;BME280;67706;51.074;-1.796;2023-11-18T07:23:25;100519.06;;;13.05;100.00
78411;BME280;67706;51.074;-1.796;2023-11-18T07:25:52;100528.16;;;13.05;100.00
78411;BME280;67706;51.074;-1.796;2023-11-18T07:28:19;100511.81;;;13.10;100.00
78411;BME280;67706;51.074;-1.796;2023-11-18T07:30:47;100511.78;;;13.17;100.00
78411;BME280;67706;51.074;-1.796;2023-11-18T07:33:13;100515.59;;;13.16;100.00
78411;BME280;67706;51.074;-1.796;2023-11-18T07:35:42;100519.81;;;13.18;100.00
78411;BME280;67706;51.074;-1.796;2023-11-18T07:38:12;100538.69;;;13.15;100.00
78411;BME280;67706;51.074;-1.796;2023-11-18T07:40:38;100543.16;;;13.09;100.00
78411;BME280;67706;51.074;-1.796;2023-11-18T07:43:07;100538.84;;;13.20;100.00
78411;BME280;67706;51.074;-1.796;2023-11-18T07:45:36;100530.44;;;13.15;100.00
78411;BME280;67706;51.074;-1.796;2023-11-18T07:48:05;100523.03;;;13.15;100.00
78411;BME280;67706;51.074;-1.796;2023-11-18T07:50:33;100531.69;;;13.19;100.00
78411;BME280;67706;51.074;-1.796;2023-11-18T07:53:01;100522.75;;;13.23;100.00
78411;BME280;67706;51.074;-1.796;2023-11-18T07:55:28;100528.66;;;13.27;100.00
78411;BME280;67706;51.074;-1.796;2023-11-18T07:57:55;100513.81;;;13.28;100.00
78411;BME280;67706;51.074;-1.796;2023-11-18T08:00:22;100512.94;;;13.34;100.00
78411;BME280;67706;51.074;-1.796;2023-11-18T08:02:49;100515.94;;;13.26;100.00
78411;BME280;67706;51.074;-1.796;2023-11-18T08:05:17;100514.44;;;13.30;100.00
78411;BME280;67706;51.074;-1.796;2023-11-18T08:07:44;100513.81;;;13.28;100.00
78411;BME280;67706;51.074;-1.796;2023-11-18T08:10:12;100496.16;;;13.35;100.00
78411;BME280;67706;51.074;-1.796;2023-11-18T08:12:44;100514.97;;;13.38;100.00
78411;BME280;67706;51.074;-1.796;2023-11-18T08:15:11;100499.91;;;13.41;100.00
78411;BME280;67706;51.074;-1.796;2023-11-18T08:17:39;100512.88;;;13.40;100.00
78411;BME280;67706;51.074;-1.796;2023-11-18T08:20:07;100516.63;;;13.46;100.00
78411;BME280;67706;51.074;-1.796;2023-11-18T08:22:39;100529.34;;;13.47;100.00
78411;BME280;67706;51.074;-1.796;2023-11-18T08:25:06;100525.91;;;13.51;100.00
78411;BME280;67706;51.074;-1.796;2023-11-18T08:27:35;100532.31;;;13.45;100.00
78411;BME280;67706;51.074;-1.796;2023-11-18T08:30:02;100547.09;;;13.51;100.00
78411;BME280;67706;51.074;-1.796;2023-11-18T08:32:31;100550.28;;;13.54;100.00
78411;BME280;67706;51.074;-1.796;2023-11-18T08:34:57;100539.25;;;13.54;100.00
78411;BME280;67706;51.074;-1.796;2023-11-18T08:37:25;100536.88;;;13.58;100.00
78411;BME280;67706;51.074;-1.796;2023-11-18T08:39:53;100527.94;;;13.63;100.00
78411;BME280;67706;51.074;-1.796;2023-11-18T08:42:19;100525.25;;;13.56;100.00
78411;BME280;67706;51.074;-1.796;2023-11-18T08:44:48;100519.25;;;13.66;100.00
78411;BME280;67706;51.074;-1.796;2023-11-18T08:47:15;100523.50;;;13.62;100.00
78411;BME280;67706;51.074;-1.796;2023-11-18T08:49:42;100523.28;;;13.63;100.00
78411;BME280;67706;51.074;-1.796;2023-11-18T08:52:11;100493.34;;;13.67;100.00
78411;BME280;67706;51.074;-1.796;2023-11-18T08:54:38;100485.31;;;13.65;100.00
78411;BME280;67706;51.074;-1.796;2023-11-18T08:57:25;100500.31;;;13.69;100.00
78411;BME280;67706;51.074;-1.796;2023-11-18T08:59:53;100487.16;;;13.71;100.00
78411;BME280;67706;51.074;-1.796;2023-11-18T09:02:24;100491.53;;;13.79;100.00
78411;BME280;67706;51.074;-1.796;2023-11-18T09:04:49;100489.63;;;13.79;100.00
78411;BME280;67706;51.074;-1.796;2023-11-18T09:07:17;100491.38;;;13.74;100.00
78411;BME280;67706;51.074;-1.796;2023-11-18T09:09:44;100505.53;;;13.77;100.00
78411;BME280;67706;51.074;-1.796;2023-11-18T09:12:14;100493.44;;;13.78;100.00
78411;BME280;67706;51.074;-1.796;2023-11-18T09:14:43;100490.22;;;13.81;100.00
78411;BME280;67706;51.074;-1.796;2023-11-18T09:17:14;100489.19;;;13.82;100.00
78411;BME280;67706;51.074;-1.796;2023-11-18T09:19:41;100496.59;;;13.82;100.00
78411;BME280;67706;51.074;-1.796;2023-11-18T09:22:07;100478.75;;;13.84;100.00
78411;BME280;67706;51.074;-1.796;2023-11-18T09:24:38;100476.81;;;13.85;100.00
78411;BME280;67706;51.074;-1.796;2023-11-18T09:27:05;100487.84;;;13.85;100.00
78411;BME280;67706;51.074;-1.796;2023-11-18T09:29:34;100489.94;;;13.89;100.00
78411;BME280;67706;51.074;-1.796;2023-11-18T09:32:01;100487.41;;;13.88;100.00
78411;BME280;67706;51.074;-1.796;2023-11-18T09:34:32;100494.59;;;13.89;100.00
78411;BME280;67706;51.074;-1.796;2023-11-18T09:36:59;100506.09;;;13.86;100.00
78411;BME280;67706;51.074;-1.796;2023-11-18T09:39:26;100499.50;;;13.87;100.00
78411;BME280;67706;51.074;-1.796;2023-11-18T09:42:05;100521.97;;;13.90;100.00
78411;BME280;67706;51.074;-1.796;2023-11-18T09:44:35;100515.53;;;13.96;100.00
78411;BME280;67706;51.074;-1.796;2023-11-18T09:47:07;100517.06;;;13.92;100.00
78411;BME280;67706;51.074;-1.796;2023-11-18T09:49:40;100518.75;;;13.93;100.00
78411;BME280;67706;51.074;-1.796;2023-11-18T09:52:16;100515.78;;;13.95;100.00
78411;BME280;67706;51.074;-1.796;2023-11-18T09:54:53;100509.41;;;13.94;100.00
78411;BME280;67706;51.074;-1.796;2023-11-18T09:57:31;100503.91;;;13.94;100.00
78411;BME280;67706;51.074;-1.796;2023-11-18T10:00:02;100501.38;;;13.93;100.00
78411;BME280;67706;51.074;-1.796;2023-11-18T10:02:45;100500.66;;;13.97;100.00
78411;BME280;67706;51.074;-1.796;2023-11-18T10:05:14;100495.31;;;14.02;100.00
78411;BME280;67706;51.074;-1.796;2023-11-18T10:07:46;100497.47;;;14.00;100.00
78411;BME280;67706;51.074;-1.796;2023-11-18T10:10:13;100490.47;;;13.98;100.00
78411;BME280;67706;51.074;-1.796;2023-11-18T10:12:41;100496.59;;;14.00;100.00
78411;BME280;67706;51.074;-1.796;2023-11-18T10:15:11;100508.44;;;14.07;100.00
78411;BME280;67706;51.074;-1.796;2023-11-18T10:17:38;100517.56;;;14.07;100.00
78411;BME280;67706;51.074;-1.796;2023-11-18T10:20:22;100515.69;;;14.01;100.00
78411;BME280;67706;51.074;-1.796;2023-11-18T10:23:05;100503.75;;;14.07;100.00
78411;BME280;67706;51.074;-1.796;2023-11-18T10:25:35;100522.22;;;14.07;100.00
78411;BME280;67706;51.074;-1.796;2023-11-18T10:28:06;100541.28;;;14.08;100.00
78411;BME280;67706;51.074;-1.796;2023-11-18T10:30:42;100514.31;;;14.10;100.00
78411;BME280;67706;51.074;-1.796;2023-11-18T10:33:14;100511.88;;;14.20;100.00
78411;BME280;67706;51.074;-1.796;2023-11-18T10:35:50;100507.78;;;14.29;100.00
78411;BME280;67706;51.074;-1.796;2023-11-18T10:38:17;100506.06;;;14.28;100.00
78411;BME280;67706;51.074;-1.796;2023-11-18T10:40:45;100513.72;;;14.26;100.00
78411;BME280;67706;51.074;-1.796;2023-11-18T10:43:11;100505.00;;;14.29;100.00
78411;BME280;67706;51.074;-1.796;2023-11-18T10:45:42;100504.47;;;14.39;100.00
78411;BME280;67706;51.074;-1.796;2023-11-18T10:48:12;100508.69;;;14.42;100.00
78411;BME280;67706;51.074;-1.796;2023-11-18T10:50:42;100500.03;;;14.38;100.00
78411;BME280;67706;51.074;-1.796;2023-11-18T10:53:11;100497.19;;;14.45;100.00
78411;BME280;67706;51.074;-1.796;2023-11-18T10:55:41;100497.84;;;14.58;100.00
78411;BME280;67706;51.074;-1.796;2023-11-18T10:58:08;100503.97;;;14.60;100.00
78411;BME280;67706;51.074;-1.796;2023-11-18T11:00:49;100520.09;;;14.63;100.00
78411;BME280;67706;51.074;-1.796;2023-11-18T11:03:16;100524.31;;;14.66;100.00
78411;BME280;67706;51.074;-1.796;2023-11-18T11:05:44;100523.84;;;14.69;100.00
78411;BME280;67706;51.074;-1.796;2023-11-18T11:08:13;100503.72;;;14.80;100.00
78411;BME280;67706;51.074;-1.796;2023-11-18T11:10:41;100507.66;;;14.72;100.00
78411;BME280;67706;51.074;-1.796;2023-11-18T11:13:09;100508.19;;;14.63;100.00
78411;BME280;67706;51.074;-1.796;2023-11-18T11:15:40;100510.84;;;14.58;100.00
78411;BME280;67706;51.074;-1.796;2023-11-18T11:18:12;100511.66;;;14.58;100.00
78411;BME280;67706;51.074;-1.796;2023-11-18T11:20:57;100501.94;;;14.56;100.00
78411;BME280;67706;51.074;-1.796;2023-11-18T11:23:36;100508.44;;;14.61;100.00
78411;BME280;67706;51.074;-1.796;2023-11-18T11:26:21;100518.19;;;14.64;100.00
78411;BME280;67706;51.074;-1.796;2023-11-18T11:29:00;100498.63;;;14.65;100.00
78411;BME280;67706;51.074;-1.796;2023-11-18T11:31:32;100504.31;;;14.70;100.00
78411;BME280;67706;51.074;-1.796;2023-11-18T11:34:02;100506.34;;;14.75;100.00
78411;BME280;67706;51.074;-1.796;2023-11-18T11:36:36;100499.41;;;14.84;100.00
78411;BME280;67706;51.074;-1.796;2023-11-18T11:39:08;100483.69;;;14.84;100.00
78411;BME280;67706;51.074;-1.796;2023-11-18T11:41:44;100499.69;;;14.94;100.00
78411;BME280;67706;51.074;-1.796;2023-11-18T11:44:12;100520.72;;;14.95;100.00
78411;BME280;67706;51.074;-1.796;2023-11-18T11:46:40;100513.75;;;14.92;100.00
78411;BME280;67706;51.074;-1.796;2023-11-18T11:49:08;100480.63;;;15.04;100.00
78411;BME280;67706;51.074;-1.796;2023-11-18T11:51:45;100469.38;;;15.05;100.00
78411;BME280;67706;51.074;-1.796;2023-11-18T11:54:20;100440.91;;;15.05;100.00
78411;BME280;67706;51.074;-1.796;2023-11-18T11:56:49;100462.19;;;15.16;100.00
78411;BME280;67706;51.074;-1.796;2023-11-18T11:59:34;100472.03;;;15.24;100.00
78411;BME280;67706;51.074;-1.796;2023-11-18T12:02:03;100470.63;;;15.33;100.00
78411;BME280;67706;51.074;-1.796;2023-11-18T12:04:33;100466.16;;;15.32;100.00
78411;BME280;67706;51.074;-1.796;2023-11-18T12:07:03;100469.69;;;15.39;100.00
78411;BME280;67706;51.074;-1.796;2023-11-18T12:09:32;100472.31;;;15.34;100.00
78411;BME280;67706;51.074;-1.796;2023-11-18T12:12:04;100483.59;;;15.32;100.00
78411;BME280;67706;51.074;-1.796;2023-11-18T12:14:49;100496.66;;;15.25;100.00
78411;BME280;67706;51.074;-1.796;2023-11-18T12:17:16;100489.72;;;15.34;100.00
78411;BME280;67706;51.074;-1.796;2023-11-18T12:19:47;100483.34;;;15.34;100.00
78411;BME280;67706;51.074;-1.796;2023-11-18T12:22:14;100472.31;;;15.34;100.00
78411;BME280;67706;51.074;-1.796;2023-11-18T12:28:07;100489.13;;;15.32;100.00
78411;BME280;67706;51.074;-1.796;2023-11-18T12:30:41;100488.16;;;15.27;100.00
78411;BME280;67706;51.074;-1.796;2023-11-18T12:33:18;100490.94;;;15.38;100.00
78411;BME280;67706;51.074;-1.796;2023-11-18T12:41:48;100480.81;;;15.21;100.00
78411;BME280;67706;51.074;-1.796;2023-11-18T12:44:30;100475.41;;;15.26;100.00
78411;BME280;67706;51.074;-1.796;2023-11-18T12:47:00;100482.84;;;15.25;100.00
78411;BME280;67706;51.074;-1.796;2023-11-18T12:49:37;100473.25;;;15.16;100.00